createdAt,value
2023-03-18T00:02:03.435Z,2.20
2023-03-18T00:04:31.038Z,2.00
2023-03-18T00:06:58.287Z,2.42
2023-03-18T00:09:25.684Z,2.00
2023-03-18T00:11:54.256Z,2.38
2023-03-18T00:14:21.295Z,2.05
2023-03-18T00:16:49.718Z,2.08
2023-03-18T00:19:18.177Z,1.83
2023-03-18T00:21:45.187Z,1.80
2023-03-18T00:24:12.642Z,1.95
2023-03-18T00:26:39.832Z,1.95
2023-03-18T00:29:08.025Z,1.95
2023-03-18T00:31:35.229Z,2.13
2023-03-18T00:34:02.826Z,2.08
2023-03-18T00:36:30.750Z,2.60
2023-03-18T00:38:58.158Z,1.98
2023-03-18T00:41:28.127Z,1.90
2023-03-18T00:43:55.785Z,2.33
2023-03-18T00:46:22.786Z,2.45
2023-03-18T00:48:50.177Z,1.98
2023-03-18T00:51:18.680Z,2.08
2023-03-18T00:53:49.854Z,2.53
2023-03-18T00:56:19.210Z,1.70
2023-03-18T00:58:48.095Z,1.83
2023-03-18T01:01:16.071Z,1.80
2023-03-18T01:03:43.989Z,2.13
2023-03-18T01:06:13.302Z,1.80
2023-03-18T01:08:41.528Z,1.88
2023-03-18T01:11:09.172Z,1.90
2023-03-18T01:13:37.854Z,1.42
2023-03-18T01:16:07.004Z,1.98
2023-03-18T01:18:34.777Z,1.80
2023-03-18T01:21:02.046Z,1.60
2023-03-18T01:23:30.522Z,1.80
2023-03-18T01:25:58.688Z,1.63
2023-03-18T01:28:27.547Z,1.52
2023-03-18T01:30:55.594Z,2.20
2023-03-18T01:33:23.164Z,1.98
2023-03-18T01:36:02.624Z,1.90
2023-03-18T01:38:30.643Z,1.35
2023-03-18T01:40:59.937Z,1.95
2023-03-18T01:43:30.954Z,1.95
2023-03-18T01:46:00.272Z,1.77
2023-03-18T01:48:30.695Z,1.60
2023-03-18T01:51:02.805Z,2.00
2023-03-18T01:53:36.363Z,2.15
2023-03-18T01:56:04.522Z,1.98
2023-03-18T01:58:37.048Z,1.88
2023-03-18T02:01:13.406Z,1.92
2023-03-18T02:03:43.115Z,2.08
2023-03-18T02:06:12.760Z,1.67
2023-03-18T02:08:40.633Z,1.80
2023-03-18T02:11:10.022Z,1.70
2023-03-18T02:13:45.138Z,2.05
2023-03-18T02:16:22.586Z,2.20
2023-03-18T02:18:54.468Z,1.65
2023-03-18T02:21:53.180Z,1.83
2023-03-18T02:25:17.410Z,1.92
2023-03-18T02:27:49.766Z,2.28
2023-03-18T02:30:23.009Z,2.17
2023-03-18T02:32:52.267Z,2.38
2023-03-18T02:35:19.384Z,1.90
2023-03-18T02:37:46.926Z,2.33
2023-03-18T02:40:20.632Z,1.92
2023-03-18T02:42:48.587Z,1.90
2023-03-18T02:45:39.022Z,1.35
2023-03-18T02:48:11.772Z,2.00
2023-03-18T02:50:42.212Z,1.58
2023-03-18T02:53:13.093Z,2.00
2023-03-18T02:55:40.264Z,1.90
2023-03-18T02:58:08.222Z,1.73
2023-03-18T03:00:36.130Z,2.00
2023-03-18T03:03:04.524Z,2.33
2023-03-18T03:05:33.927Z,2.45
2023-03-18T03:08:02.008Z,2.05
2023-03-18T03:10:29.905Z,2.47
2023-03-18T03:12:57.572Z,2.08
2023-03-18T03:15:25.408Z,2.05
2023-03-18T03:17:53.191Z,2.20
2023-03-18T03:20:20.624Z,2.10
2023-03-18T03:22:48.277Z,2.38
2023-03-18T03:25:15.574Z,2.10
2023-03-18T03:27:44.007Z,1.95
2023-03-18T03:30:13.334Z,2.03
2023-03-18T03:32:40.629Z,1.88
2023-03-18T03:35:09.615Z,2.03
2023-03-18T03:37:36.664Z,2.03
2023-03-18T03:40:04.857Z,2.30
2023-03-18T03:42:31.972Z,1.77
2023-03-18T03:44:59.144Z,1.98
2023-03-18T03:47:26.261Z,1.95
2023-03-18T03:49:53.467Z,2.20
2023-03-18T03:52:20.773Z,1.88
2023-03-18T03:54:47.955Z,2.38
2023-03-18T03:57:15.190Z,1.98
2023-03-18T03:59:42.205Z,2.40
2023-03-18T04:02:09.931Z,2.25
2023-03-18T04:04:37.540Z,2.13
2023-03-18T04:07:04.735Z,2.08
2023-03-18T04:09:31.865Z,2.03
2023-03-18T04:11:58.887Z,2.25
2023-03-18T04:14:26.009Z,1.75
2023-03-18T04:16:53.120Z,1.80
2023-03-18T04:19:20.178Z,1.88
2023-03-18T04:21:47.396Z,2.63
2023-03-18T04:24:14.572Z,1.90
2023-03-18T04:26:41.752Z,2.78
2023-03-18T04:29:08.938Z,2.17
2023-03-18T04:31:36.234Z,2.33
2023-03-18T04:34:03.542Z,1.70
2023-03-18T04:36:30.761Z,1.98
2023-03-18T04:38:57.914Z,1.67
2023-03-18T04:41:25.160Z,2.20
2023-03-18T04:43:52.491Z,2.13
2023-03-18T04:46:19.566Z,1.60
2023-03-18T04:48:47.318Z,1.98
2023-03-18T04:51:14.610Z,1.90
2023-03-18T04:53:42.362Z,1.42
2023-03-18T04:56:09.458Z,1.73
2023-03-18T04:58:36.807Z,1.80
2023-03-18T05:01:05.076Z,1.73
2023-03-18T05:03:32.308Z,1.80
2023-03-18T05:05:59.403Z,1.90
2023-03-18T05:08:26.507Z,1.77
2023-03-18T05:10:53.827Z,1.75
2023-03-18T05:13:20.844Z,1.80
2023-03-18T05:15:47.936Z,2.00
2023-03-18T05:18:16.647Z,2.13
2023-03-18T05:20:43.845Z,1.80
2023-03-18T05:23:10.856Z,2.42
2023-03-18T05:25:38.611Z,2.25
2023-03-18T05:28:06.660Z,1.80
2023-03-18T05:30:34.747Z,2.30
2023-03-18T05:33:02.087Z,1.77
2023-03-18T05:35:29.213Z,2.10
2023-03-18T05:37:56.269Z,1.73
2023-03-18T05:40:24.606Z,1.90
2023-03-18T05:42:56.402Z,1.48
2023-03-18T05:45:24.183Z,1.60
2023-03-18T05:47:52.108Z,1.95
2023-03-18T05:50:31.443Z,1.45
2023-03-18T05:52:58.990Z,1.73
2023-03-18T05:55:26.564Z,1.77
2023-03-18T05:57:53.570Z,2.05
2023-03-18T06:00:21.074Z,2.10
2023-03-18T06:02:49.168Z,1.77
2023-03-18T06:05:16.474Z,1.60
2023-03-18T06:07:43.814Z,1.95
2023-03-18T06:10:11.664Z,2.35
2023-03-18T06:12:39.830Z,1.92
2023-03-18T06:15:09.488Z,1.73
2023-03-18T06:17:36.908Z,2.22
2023-03-18T06:20:11.816Z,2.00
2023-03-18T06:22:39.451Z,2.10
2023-03-18T06:25:08.520Z,1.60
2023-03-18T06:27:35.951Z,1.27
2023-03-18T06:30:04.940Z,1.45
2023-03-18T06:32:33.251Z,1.55
2023-03-18T06:35:01.066Z,1.70
2023-03-18T06:37:28.569Z,2.00
2023-03-18T06:39:55.677Z,1.60
2023-03-18T06:42:22.878Z,1.52
2023-03-18T06:44:53.442Z,1.38
2023-03-18T06:47:22.605Z,1.50
2023-03-18T06:49:51.062Z,1.17
2023-03-18T06:52:19.349Z,1.38
2023-03-18T06:54:46.746Z,1.30
2023-03-18T06:57:13.941Z,1.35
2023-03-18T06:59:41.003Z,1.45
2023-03-18T07:02:10.086Z,1.58
2023-03-18T07:04:37.146Z,1.17
2023-03-18T07:07:05.010Z,1.27
2023-03-18T07:09:33.749Z,1.30
2023-03-18T07:12:01.324Z,1.45
2023-03-18T07:14:28.987Z,1.30
2023-03-18T07:16:57.075Z,1.30
2023-03-18T07:19:24.389Z,1.70
2023-03-18T07:21:51.625Z,1.60
2023-03-18T07:24:21.402Z,1.23
2023-03-18T07:26:50.795Z,1.48
2023-03-18T07:29:18.798Z,1.40
2023-03-18T07:31:46.231Z,1.40
2023-03-18T07:34:15.471Z,1.10
2023-03-18T07:36:42.840Z,1.23
2023-03-18T07:39:10.483Z,1.20
2023-03-18T07:41:38.204Z,1.50
2023-03-18T07:44:07.029Z,1.30
2023-03-18T07:46:34.469Z,1.20
2023-03-18T07:49:02.224Z,1.42
2023-03-18T07:51:29.948Z,1.30
2023-03-18T07:53:57.672Z,1.30
2023-03-18T07:56:25.114Z,1.20
2023-03-18T07:58:53.140Z,1.30
2023-03-18T08:01:20.242Z,1.70
2023-03-18T08:03:48.067Z,1.52
2023-03-18T08:06:16.289Z,1.50
2023-03-18T08:08:44.124Z,1.75
2023-03-18T08:11:12.196Z,1.73
2023-03-18T08:13:39.833Z,1.63
2023-03-18T08:16:07.571Z,1.60
2023-03-18T08:18:36.142Z,1.80
2023-03-18T08:21:03.194Z,1.42
2023-03-18T08:23:30.311Z,1.60
2023-03-18T08:25:57.496Z,1.80
2023-03-18T08:28:24.587Z,1.63
2023-03-18T08:30:56.291Z,1.65
2023-03-18T08:33:24.835Z,1.52
2023-03-18T08:35:52.354Z,2.20
2023-03-18T08:38:19.916Z,1.80
2023-03-18T08:40:47.755Z,1.75
2023-03-18T08:43:14.837Z,2.13
2023-03-18T08:45:42.005Z,2.22
2023-03-18T08:48:10.060Z,2.35
2023-03-18T08:50:37.723Z,2.50
2023-03-18T08:53:05.925Z,3.28
2023-03-18T08:55:37.577Z,2.70
2023-03-18T08:58:06.096Z,3.05
2023-03-18T09:00:38.514Z,3.22
2023-03-18T09:03:05.937Z,2.40
2023-03-18T09:05:33.601Z,2.88
2023-03-18T09:08:01.348Z,3.40
2023-03-18T09:10:30.389Z,3.60
2023-03-18T09:12:57.694Z,3.17
2023-03-18T09:15:25.152Z,3.17
2023-03-18T09:18:09.834Z,3.55
2023-03-18T09:20:38.152Z,3.60
2023-03-18T09:23:05.226Z,4.18
2023-03-18T09:25:32.699Z,3.60
2023-03-18T09:28:01.333Z,3.05
2023-03-18T09:30:30.426Z,2.92
2023-03-18T09:32:57.737Z,2.90
2023-03-18T09:35:24.958Z,3.40
2023-03-18T09:37:52.399Z,3.05
2023-03-18T09:40:27.689Z,2.70
2023-03-18T09:43:13.730Z,2.83
2023-03-18T09:46:08.572Z,3.40
2023-03-18T09:48:36.234Z,2.92
2023-03-18T09:51:50.873Z,2.95
2023-03-18T09:54:18.350Z,3.95
2023-03-18T09:56:46.437Z,5.43
2023-03-18T09:59:20.370Z,4.80
2023-03-18T10:01:51.267Z,4.80
2023-03-18T10:04:25.810Z,4.03
2023-03-18T10:07:01.996Z,3.40
2023-03-18T10:09:40.561Z,4.55
2023-03-18T10:12:16.164Z,3.28
2023-03-18T10:14:48.241Z,4.10
2023-03-18T10:17:30.496Z,3.28
2023-03-18T10:20:05.219Z,3.63
2023-03-18T10:22:50.424Z,3.92
2023-03-18T10:25:32.973Z,3.30
2023-03-18T10:28:15.634Z,3.95
2023-03-18T10:30:52.124Z,3.13
2023-03-18T10:33:25.142Z,4.10
2023-03-18T10:36:06.435Z,3.95
2023-03-18T10:38:54.839Z,4.47
2023-03-18T10:41:29.462Z,4.35
2023-03-18T10:43:57.774Z,3.50
2023-03-18T10:46:27.231Z,3.60
2023-03-18T10:49:19.519Z,4.57
2023-03-18T10:51:58.328Z,3.38
2023-03-18T10:54:28.253Z,3.50
2023-03-18T10:56:55.544Z,3.38
2023-03-18T10:59:25.997Z,3.40
2023-03-18T11:02:00.263Z,3.60
2023-03-18T11:04:29.013Z,4.18
2023-03-18T11:07:03.159Z,3.65
2023-03-18T11:09:42.623Z,3.30
2023-03-18T11:12:25.950Z,3.85
2023-03-18T11:14:54.168Z,3.70
2023-03-18T11:17:31.586Z,4.50
2023-03-18T11:20:17.214Z,4.00
2023-03-18T11:22:49.281Z,3.63
2023-03-18T11:25:27.300Z,3.88
2023-03-18T11:28:18.374Z,4.15
2023-03-18T11:30:50.613Z,3.67
2023-03-18T11:33:18.107Z,3.30
2023-03-18T11:36:06.597Z,3.67
2023-03-18T11:38:36.450Z,3.65
2023-03-18T11:41:09.047Z,3.25
2023-03-18T11:43:38.416Z,3.30
2023-03-18T11:46:11.344Z,2.83
2023-03-18T11:48:40.631Z,2.80
2023-03-18T11:51:17.937Z,2.80
2023-03-18T11:53:54.381Z,2.65
2023-03-18T11:56:36.451Z,2.47
2023-03-18T11:59:15.350Z,3.42
2023-03-18T12:02:00.711Z,3.08
2023-03-18T12:04:45.317Z,3.10
2023-03-18T12:07:30.641Z,3.28
2023-03-18T12:10:18.289Z,3.25
2023-03-18T12:13:14.841Z,3.03
2023-03-18T12:16:10.158Z,3.22
2023-03-18T12:19:00.956Z,2.80
2023-03-18T12:22:05.569Z,2.97
2023-03-18T12:28:03.833Z,2.70
2023-03-18T12:30:46.251Z,2.70
2023-03-18T12:33:51.167Z,3.05
2023-03-18T12:36:23.532Z,3.30
2023-03-18T12:39:16.158Z,3.10
2023-03-18T12:42:04.587Z,3.22
2023-03-18T12:44:34.632Z,3.15
2023-03-18T12:47:26.031Z,3.70
2023-03-18T12:50:00.270Z,4.38
2023-03-18T12:52:44.156Z,3.92
2023-03-18T12:55:15.069Z,3.47
2023-03-18T12:57:54.870Z,4.18
2023-03-18T13:00:33.849Z,3.80
2023-03-18T13:03:09.238Z,4.00
2023-03-18T13:05:58.706Z,3.45
2023-03-18T13:08:31.312Z,3.05
2023-03-18T13:11:12.171Z,3.28
2023-03-18T13:13:43.904Z,3.22
2023-03-18T13:16:14.272Z,3.05
2023-03-18T13:18:45.564Z,2.75
2023-03-18T13:21:19.561Z,2.83
2023-03-18T13:24:05.231Z,3.00
2023-03-18T13:26:44.701Z,3.55
2023-03-18T13:29:31.133Z,3.00
2023-03-18T13:32:43.511Z,2.60
2023-03-18T13:35:21.868Z,3.22
2023-03-18T13:37:57.885Z,2.75
2023-03-18T13:40:52.710Z,3.20
2023-03-18T13:43:23.168Z,3.50
2023-03-18T13:45:54.217Z,3.58
2023-03-18T13:48:35.782Z,3.15
2023-03-18T13:51:35.015Z,2.83
2023-03-18T13:54:06.020Z,3.05
2023-03-18T13:56:42.936Z,3.30
2023-03-18T13:59:34.862Z,3.28
2023-03-18T14:02:29.690Z,2.92
2023-03-18T14:05:00.264Z,3.20
2023-03-18T14:07:28.833Z,3.70
2023-03-18T14:10:17.768Z,2.75
2023-03-18T14:12:50.457Z,2.83
2023-03-18T14:15:38.139Z,3.03
2023-03-18T14:18:19.502Z,3.42
2023-03-18T14:20:48.075Z,3.25
2023-03-18T14:23:33.828Z,3.15
2023-03-18T14:26:08.034Z,3.00
2023-03-18T14:29:03.610Z,3.15
2023-03-18T14:31:50.655Z,2.70
2023-03-18T14:34:17.699Z,3.05
2023-03-18T14:36:53.794Z,3.10
2023-03-18T14:39:33.044Z,2.83
2023-03-18T14:42:02.252Z,2.08
2023-03-18T14:44:53.093Z,2.60
2023-03-18T14:47:38.090Z,2.47
2023-03-18T14:50:31.480Z,3.15
2023-03-18T14:53:35.593Z,3.10
2023-03-18T14:56:04.336Z,3.25
2023-03-18T14:58:34.322Z,2.75
2023-03-18T15:01:10.119Z,3.80
2023-03-18T15:03:40.948Z,2.80
2023-03-18T15:06:08.194Z,2.60
2023-03-18T15:08:47.999Z,2.53
2023-03-18T15:11:19.144Z,2.42
2023-03-18T15:13:46.652Z,2.95
2023-03-18T15:16:18.498Z,2.80
2023-03-18T15:18:46.249Z,2.00
2023-03-18T15:21:37.851Z,2.55
2023-03-18T15:24:07.852Z,2.50
2023-03-18T15:26:38.253Z,3.25
2023-03-18T15:29:33.581Z,2.78
2023-03-18T15:32:10.483Z,2.83
2023-03-18T15:34:41.868Z,3.78
2023-03-18T15:37:26.396Z,2.70
2023-03-18T15:39:56.529Z,2.92
2023-03-18T15:42:24.320Z,2.50
2023-03-18T15:45:18.197Z,2.90
2023-03-18T15:47:45.580Z,3.20
2023-03-18T15:50:21.564Z,2.83
2023-03-18T15:52:48.893Z,2.20
2023-03-18T15:55:31.699Z,2.40
2023-03-18T15:58:00.096Z,2.63
2023-03-18T16:00:27.629Z,2.67
2023-03-18T16:02:55.311Z,2.70
2023-03-18T16:05:26.342Z,2.60
2023-03-18T16:07:54.466Z,2.53
2023-03-18T16:10:24.080Z,2.60
2023-03-18T16:12:55.931Z,2.25
2023-03-18T16:15:25.620Z,2.45
2023-03-18T16:17:54.660Z,2.70
2023-03-18T16:20:28.772Z,2.88
2023-03-18T16:22:56.684Z,2.33
2023-03-18T16:25:25.086Z,2.40
2023-03-18T16:27:56.114Z,2.33
2023-03-18T16:30:31.263Z,2.35
2023-03-18T16:32:59.951Z,2.20
2023-03-18T16:35:34.550Z,2.83
2023-03-18T16:38:02.592Z,2.72
2023-03-18T16:40:31.974Z,2.45
2023-03-18T16:42:59.364Z,2.38
2023-03-18T16:45:33.609Z,2.85
2023-03-18T16:48:07.208Z,2.90
2023-03-18T16:50:37.846Z,2.45
2023-03-18T16:53:22.614Z,3.08
2023-03-18T16:55:53.394Z,3.08
2023-03-18T16:58:28.389Z,2.97
2023-03-18T17:00:55.694Z,3.20
2023-03-18T17:03:23.409Z,2.60
2023-03-18T17:05:51.077Z,2.55
2023-03-18T17:08:22.248Z,2.50
2023-03-18T17:10:52.517Z,2.90
2023-03-18T17:13:28.770Z,2.72
2023-03-18T17:15:56.104Z,2.40
2023-03-18T17:18:24.815Z,2.75
2023-03-18T17:20:52.462Z,2.85
2023-03-18T17:23:28.993Z,2.45
2023-03-18T17:26:01.169Z,2.70
2023-03-18T17:28:36.846Z,2.95
2023-03-18T17:31:04.608Z,2.83
2023-03-18T17:33:34.892Z,2.55
2023-03-18T17:36:02.347Z,2.60
2023-03-18T17:38:34.982Z,2.33
2023-03-18T17:41:22.519Z,2.50
2023-03-18T17:43:49.956Z,2.83
2023-03-18T17:46:17.060Z,2.85
2023-03-18T17:48:44.572Z,2.35
2023-03-18T17:51:16.984Z,2.35
2023-03-18T17:53:49.773Z,2.58
2023-03-18T17:56:19.560Z,2.60
2023-03-18T17:58:49.274Z,2.50
2023-03-18T18:01:19.912Z,2.40
2023-03-18T18:03:48.136Z,2.15
2023-03-18T18:06:21.445Z,2.38
2023-03-18T18:08:49.303Z,2.55
2023-03-18T18:11:20.300Z,2.70
2023-03-18T18:13:47.969Z,2.38
2023-03-18T18:16:15.660Z,3.13
2023-03-18T18:18:42.937Z,2.30
2023-03-18T18:21:16.221Z,2.80
2023-03-18T18:23:45.661Z,2.47
2023-03-18T18:26:20.042Z,2.53
2023-03-18T18:28:49.724Z,2.17
2023-03-18T18:31:19.680Z,2.47
2023-03-18T18:33:50.346Z,2.88
2023-03-18T18:36:18.328Z,2.80
2023-03-18T18:38:45.714Z,2.58
2023-03-18T18:41:13.199Z,3.35
2023-03-18T18:43:40.272Z,3.20
2023-03-18T18:46:15.205Z,2.85
2023-03-18T18:48:44.667Z,2.78
2023-03-18T18:51:18.607Z,2.58
2023-03-18T18:53:46.732Z,2.55
2023-03-18T18:56:16.022Z,3.17
2023-03-18T18:58:43.212Z,2.90
2023-03-18T19:01:13.166Z,2.63
2023-03-18T19:03:41.734Z,2.90
2023-03-18T19:06:32.302Z,2.95
2023-03-18T19:09:03.702Z,2.28
2023-03-18T19:11:30.886Z,2.08
2023-03-18T19:14:20.452Z,2.90
2023-03-18T19:16:48.708Z,2.47
2023-03-18T19:19:19.504Z,3.10
2023-03-18T19:21:46.860Z,3.00
2023-03-18T19:24:36.093Z,2.40
2023-03-18T19:27:14.356Z,3.20
2023-03-18T19:29:42.531Z,2.78
2023-03-18T19:32:20.841Z,3.08
2023-03-18T19:34:49.182Z,3.58
2023-03-18T19:37:29.101Z,3.25
2023-03-18T19:39:56.903Z,3.05
2023-03-18T19:42:25.720Z,2.30
2023-03-18T19:44:52.801Z,2.22
2023-03-18T19:47:24.864Z,2.00
2023-03-18T19:49:52.134Z,1.70
2023-03-18T19:52:24.971Z,2.28
2023-03-18T19:54:53.141Z,3.00
2023-03-18T19:57:25.849Z,2.60
2023-03-18T19:59:55.184Z,2.13
2023-03-18T20:02:23.680Z,2.13
2023-03-18T20:04:53.433Z,2.22
2023-03-18T20:07:23.564Z,1.95
2023-03-18T20:09:51.640Z,1.90
2023-03-18T20:12:20.881Z,1.92
2023-03-18T20:14:48.321Z,2.10
2023-03-18T20:17:24.965Z,2.20
2023-03-18T20:19:52.011Z,2.10
2023-03-18T20:22:39.388Z,2.20
2023-03-18T20:25:08.816Z,2.45
2023-03-18T20:27:35.893Z,2.13
2023-03-18T20:30:15.661Z,1.67
2023-03-18T20:32:43.240Z,2.20
2023-03-18T20:35:11.476Z,2.63
2023-03-18T20:37:39.186Z,3.00
2023-03-18T20:40:14.233Z,2.35
2023-03-18T20:42:41.827Z,2.20
2023-03-18T20:45:15.705Z,2.40
2023-03-18T20:47:44.704Z,1.92
2023-03-18T20:50:14.248Z,1.92
2023-03-18T20:52:44.050Z,2.40
2023-03-18T20:55:27.256Z,2.40
2023-03-18T20:57:54.957Z,2.35
2023-03-18T21:00:27.693Z,2.40
2023-03-18T21:02:57.849Z,3.05
2023-03-18T21:05:28.677Z,2.00
2023-03-18T21:07:56.115Z,2.00
2023-03-18T21:10:27.630Z,2.10
2023-03-18T21:12:56.178Z,2.38
2023-03-18T21:15:26.659Z,2.28
2023-03-18T21:17:54.370Z,1.63
2023-03-18T21:20:27.321Z,1.70
2023-03-18T21:22:55.239Z,2.00
2023-03-18T21:25:28.201Z,2.00
2023-03-18T21:27:55.374Z,2.23
2023-03-18T21:30:24.046Z,2.63
2023-03-18T21:32:51.369Z,1.95
2023-03-18T21:35:23.485Z,2.10
2023-03-18T21:37:51.969Z,2.28
2023-03-18T21:40:22.714Z,2.13
2023-03-18T21:42:51.396Z,2.10
2023-03-18T21:45:21.572Z,1.63
2023-03-18T21:47:48.708Z,1.58
2023-03-18T21:50:26.599Z,1.38
2023-03-18T21:52:54.725Z,1.45
2023-03-18T21:55:22.754Z,1.38
2023-03-18T21:57:50.087Z,1.38
2023-03-18T22:00:20.309Z,1.60
2023-03-18T22:02:48.052Z,1.50
2023-03-18T22:05:23.244Z,1.40
2023-03-18T22:07:51.737Z,1.60
2023-03-18T22:10:22.575Z,1.38
2023-03-18T22:12:50.091Z,1.35
2023-03-18T22:15:38.588Z,1.40
2023-03-18T22:18:06.555Z,1.30
2023-03-18T22:20:35.416Z,1.30
2023-03-18T22:23:13.702Z,1.10
2023-03-18T22:25:41.969Z,1.40
2023-03-18T22:28:11.790Z,1.30
2023-03-18T22:30:42.178Z,1.30
2023-03-18T22:33:26.422Z,1.67
2023-03-18T22:35:54.307Z,2.00
2023-03-18T22:38:23.423Z,1.95
2023-03-18T22:40:56.545Z,1.40
2023-03-18T22:43:27.698Z,1.45
2023-03-18T22:45:55.052Z,1.23
2023-03-18T22:48:22.500Z,1.27
2023-03-18T22:50:50.053Z,1.33
2023-03-18T22:53:27.228Z,1.40
2023-03-18T22:55:56.773Z,1.80
2023-03-18T22:58:26.607Z,2.13
2023-03-18T23:00:55.522Z,2.40
2023-03-18T23:03:26.813Z,2.28
2023-03-18T23:05:55.886Z,2.67
2023-03-18T23:08:23.980Z,1.63
2023-03-18T23:10:52.905Z,2.20
2023-03-18T23:13:38.096Z,1.50
2023-03-18T23:16:07.501Z,1.20
2023-03-18T23:18:35.204Z,1.27
2023-03-18T23:21:02.571Z,1.75
2023-03-18T23:23:30.565Z,1.50
2023-03-18T23:25:58.471Z,1.50
2023-03-18T23:28:26.834Z,1.73
2023-03-18T23:30:54.243Z,1.77
2023-03-18T23:33:21.372Z,1.13
2023-03-18T23:35:49.206Z,1.23
2023-03-18T23:38:16.400Z,1.60
2023-03-18T23:40:43.600Z,1.67
2023-03-18T23:43:11.136Z,1.50
2023-03-18T23:45:39.132Z,1.38
2023-03-18T23:48:07.004Z,2.20
2023-03-18T23:50:34.494Z,1.95
2023-03-18T23:53:02.037Z,2.05
2023-03-18T23:55:36.422Z,1.70
2023-03-18T23:58:04.421Z,2.13
